createdAt,value
2023-02-13T00:01:44.369Z,102003.56
2023-02-13T00:03:50.139Z,102006.47
2023-02-13T00:05:55.878Z,102007.02
2023-02-13T00:08:01.262Z,102002.73
2023-02-13T00:10:06.495Z,102002.95
2023-02-13T00:12:11.869Z,102003.49
2023-02-13T00:14:17.190Z,101998.27
2023-02-13T00:16:22.420Z,101993.86
2023-02-13T00:18:27.688Z,101993.97
2023-02-13T00:20:32.635Z,101998.28
2023-02-13T00:22:37.696Z,102005.28
2023-02-13T00:24:42.923Z,102002.68
2023-02-13T00:26:48.235Z,102006.1
2023-02-13T00:28:53.421Z,101996.19
2023-02-13T00:30:59.769Z,101997.46
2023-02-13T00:33:06.008Z,101995.55
2023-02-13T00:35:11.179Z,101988.72
2023-02-13T00:37:16.684Z,101987.95
2023-02-13T00:39:22.197Z,101982.98
2023-02-13T00:41:27.826Z,101981.19
2023-02-13T00:43:32.961Z,101985.84
2023-02-13T00:45:38.147Z,101986.04
2023-02-13T00:47:43.499Z,101986.64
2023-02-13T00:49:48.898Z,101994.5
2023-02-13T00:51:54.117Z,101984.84
2023-02-13T00:53:59.216Z,101974.34
2023-02-13T00:56:04.422Z,101982.59
2023-02-13T00:58:09.776Z,101974.52
2023-02-13T01:00:15.076Z,101974.37
2023-02-13T01:02:20.327Z,101974.84
2023-02-13T01:04:25.669Z,101968.33
2023-02-13T01:06:31.100Z,101974.58
2023-02-13T01:08:36.071Z,101970.77
2023-02-13T01:10:41.759Z,101966.56
2023-02-13T01:12:47.055Z,101965.07
2023-02-13T01:14:52.210Z,101974.86
2023-02-13T01:16:57.483Z,101974.2
2023-02-13T01:19:02.558Z,101977.41
2023-02-13T01:21:07.903Z,101972.44
2023-02-13T01:23:13.308Z,101978.27
2023-02-13T01:25:18.721Z,101980.11
2023-02-13T01:27:23.882Z,101975.46
2023-02-13T01:29:29.264Z,101977.78
2023-02-13T01:31:34.797Z,101982.69
2023-02-13T01:33:40.442Z,101982.77
2023-02-13T01:35:45.844Z,101982.63
2023-02-13T01:37:50.912Z,101976.61
2023-02-13T01:39:56.577Z,101974.47
2023-02-13T01:42:01.845Z,101973.02
2023-02-13T01:44:07.160Z,101965.91
2023-02-13T01:46:12.568Z,101964.56
2023-02-13T01:48:17.785Z,101962.49
2023-02-13T01:50:23.140Z,101966.42
2023-02-13T01:52:28.413Z,101959.64
2023-02-13T01:54:33.738Z,101951.09
2023-02-13T01:56:38.911Z,101954.93
2023-02-13T01:58:44.195Z,101956.8
2023-02-13T02:00:49.187Z,101963.18
2023-02-13T02:02:54.346Z,101965.52
2023-02-13T02:04:59.429Z,101963.25
2023-02-13T02:07:04.546Z,101958.08
2023-02-13T02:09:09.742Z,101958.88
2023-02-13T02:11:15.280Z,101952.94
2023-02-13T02:13:21.072Z,101955.61
2023-02-13T02:15:26.906Z,101950.41
2023-02-13T02:17:32.145Z,101943.55
2023-02-13T02:19:37.528Z,101941.75
2023-02-13T02:21:42.687Z,101950.84
2023-02-13T02:23:47.701Z,101943.83
2023-02-13T02:25:52.812Z,101949.48
2023-02-13T02:27:58.009Z,101951.27
2023-02-13T02:30:03.371Z,101951.63
2023-02-13T02:32:08.849Z,101955.42
2023-02-13T02:34:14.122Z,101954.75
2023-02-13T02:36:19.416Z,101953.25
2023-02-13T02:38:24.481Z,101949.45
2023-02-13T02:40:29.628Z,101949.27
2023-02-13T02:42:34.700Z,101949.34
2023-02-13T02:44:40.301Z,101945.72
2023-02-13T02:46:45.803Z,101949.8
2023-02-13T02:48:51.209Z,101949.27
2023-02-13T02:50:57.215Z,101946.02
2023-02-13T02:53:03.065Z,101951.05
2023-02-13T02:55:08.533Z,101958.64
2023-02-13T02:57:15.106Z,101950.59
2023-02-13T02:59:20.315Z,101952.45
2023-02-13T03:01:25.820Z,101953.89
2023-02-13T03:03:31.189Z,101952.95
2023-02-13T03:05:36.429Z,101948.8
2023-02-13T03:07:41.678Z,101950.58
2023-02-13T03:09:46.999Z,101951.23
2023-02-13T03:11:52.504Z,101951.11
2023-02-13T03:13:57.770Z,101953.41
2023-02-13T03:16:03.066Z,101956.26
2023-02-13T03:18:08.452Z,101956.68
2023-02-13T03:20:13.950Z,101956.53
2023-02-13T03:22:22.242Z,101955.45
2023-02-13T03:24:27.813Z,101956.33
2023-02-13T03:26:33.231Z,101956.58
2023-02-13T03:28:38.931Z,101955.2
2023-02-13T03:30:44.491Z,101956.11
2023-02-13T03:32:49.970Z,101956.91
2023-02-13T03:34:55.157Z,101954.25
2023-02-13T03:37:00.393Z,101955.39
2023-02-13T03:39:05.569Z,101951.07
2023-02-13T03:41:10.900Z,101952.44
2023-02-13T03:43:16.214Z,101948.6
2023-02-13T03:45:22.426Z,101949.25
2023-02-13T03:47:27.628Z,101953.9
2023-02-13T03:49:33.099Z,101953.28
2023-02-13T03:51:38.379Z,101959.58
2023-02-13T03:53:43.657Z,101960.34
2023-02-13T03:55:48.887Z,101958.42
2023-02-13T03:57:54.245Z,101959.58
2023-02-13T03:59:59.929Z,101958.69
2023-02-13T04:02:05.160Z,101958.7
2023-02-13T04:04:10.671Z,101960.05
2023-02-13T04:06:16.099Z,101954.88
2023-02-13T04:08:21.866Z,101953.22
2023-02-13T04:10:27.076Z,101949.81
2023-02-13T04:12:32.556Z,101951.44
2023-02-13T04:14:38.273Z,101945.89
2023-02-13T04:16:43.770Z,101945.38
2023-02-13T04:18:49.091Z,101944.92
2023-02-13T04:20:54.428Z,101938.03
2023-02-13T04:23:00.878Z,101943.66
2023-02-13T04:25:06.060Z,101935.57
2023-02-13T04:27:11.046Z,101933.32
2023-02-13T04:29:16.291Z,101929.77
2023-02-13T04:31:22.208Z,101932.48
2023-02-13T04:33:27.778Z,101930.17
2023-02-13T04:35:33.667Z,101932.38
2023-02-13T04:37:38.933Z,101933.67
2023-02-13T04:39:44.479Z,101931.27
2023-02-13T04:41:49.452Z,101925.64
2023-02-13T04:43:55.344Z,101928.59
2023-02-13T04:46:00.651Z,101928.17
2023-02-13T04:48:06.010Z,101929.56
2023-02-13T04:50:11.193Z,101929.48
2023-02-13T04:52:16.336Z,101927.76
2023-02-13T04:54:21.848Z,101928.27
2023-02-13T04:56:27.145Z,101933.33
2023-02-13T04:58:32.453Z,101932.43
2023-02-13T05:00:37.664Z,101926.61
2023-02-13T05:02:43.036Z,101927.73
2023-02-13T05:04:48.498Z,101927.72
2023-02-13T05:06:54.056Z,101928.59
2023-02-13T05:08:59.632Z,101931.8
2023-02-13T05:11:04.945Z,101931.34
2023-02-13T05:13:10.326Z,101935.71
2023-02-13T05:15:15.405Z,101938.69
2023-02-13T05:17:20.698Z,101941.78
2023-02-13T05:19:25.978Z,101940.5
2023-02-13T05:21:31.156Z,101942.88
2023-02-13T05:23:36.625Z,101935.97
2023-02-13T05:25:41.992Z,101939.73
2023-02-13T05:27:47.081Z,101942.27
2023-02-13T05:29:52.328Z,101942.19
2023-02-13T05:31:57.898Z,101937.92
2023-02-13T05:34:04.000Z,101939.58
2023-02-13T05:36:09.371Z,101935.95
2023-02-13T05:38:14.837Z,101943.83
2023-02-13T05:40:21.775Z,101942.86
2023-02-13T05:42:27.782Z,101947.55
2023-02-13T05:44:32.999Z,101945.96
2023-02-13T05:46:40.333Z,101946.13
2023-02-13T05:48:46.029Z,101950.41
2023-02-13T05:50:51.181Z,101953.27
2023-02-13T05:52:56.725Z,101952.95
2023-02-13T05:55:02.050Z,101955.69
2023-02-13T05:57:07.298Z,101954.7
2023-02-13T05:59:12.710Z,101949.25
2023-02-13T06:01:18.441Z,101956.39
2023-02-13T06:03:24.058Z,101956.22
2023-02-13T06:05:29.511Z,101958.27
2023-02-13T06:07:34.634Z,101958.84
2023-02-13T06:09:40.001Z,101959.84
2023-02-13T06:11:45.374Z,101958.85
2023-02-13T06:13:50.423Z,101961.85
2023-02-13T06:15:56.011Z,101956.78
2023-02-13T06:18:01.582Z,101958.47
2023-02-13T06:20:06.869Z,101950.23
2023-02-13T06:22:12.587Z,101947.34
2023-02-13T06:24:18.031Z,101950.39
2023-02-13T06:26:23.697Z,101950.91
2023-02-13T06:28:29.351Z,101946.31
2023-02-13T06:30:35.074Z,101945.02
2023-02-13T06:32:40.717Z,101949.02
2023-02-13T06:34:46.220Z,101951.02
2023-02-13T06:36:51.324Z,101946.73
2023-02-13T06:38:56.568Z,101951.34
2023-02-13T06:41:02.516Z,101955.42
2023-02-13T06:43:08.220Z,101960.27
2023-02-13T06:45:13.374Z,101953.56
2023-02-13T06:47:19.421Z,101954.31
2023-02-13T06:49:25.311Z,101968.05
2023-02-13T06:51:30.473Z,101962.42
2023-02-13T06:53:36.216Z,101965.77
2023-02-13T06:55:41.621Z,101963.06
2023-02-13T06:57:47.041Z,101971.66
2023-02-13T06:59:52.879Z,101965.66
2023-02-13T07:01:58.779Z,101970.63
2023-02-13T07:04:04.517Z,101972.13
2023-02-13T07:06:09.722Z,101978.52
2023-02-13T07:08:14.936Z,101979.59
2023-02-13T07:10:20.732Z,101975.14
2023-02-13T07:12:26.129Z,101982.61
2023-02-13T07:14:31.448Z,101983.9
2023-02-13T07:16:36.953Z,101980.37
2023-02-13T07:18:42.510Z,101979.63
2023-02-13T07:20:47.847Z,101974.8
2023-02-13T07:22:53.035Z,101970.56
2023-02-13T07:24:58.696Z,101969.44
2023-02-13T07:27:04.045Z,101966.96
2023-02-13T07:29:13.642Z,101955.86
2023-02-13T07:31:19.192Z,101952.01
2023-02-13T07:33:25.546Z,101951.89
2023-02-13T07:35:31.190Z,101940.13
2023-02-13T07:37:36.553Z,101944.88
2023-02-13T07:39:41.975Z,101943.66
2023-02-13T07:41:47.414Z,101949.61
2023-02-13T07:43:54.080Z,101950.38
2023-02-13T07:46:00.334Z,101950.41
2023-02-13T07:48:05.672Z,101949.09
2023-02-13T07:50:11.684Z,101950.87
2023-02-13T07:52:17.872Z,101948.53
2023-02-13T07:54:24.227Z,101946.11
2023-02-13T07:56:30.592Z,101944.14
2023-02-13T07:58:37.374Z,101951.7
2023-02-13T08:00:43.274Z,101954.62
2023-02-13T08:02:48.838Z,101954.38
2023-02-13T08:04:55.091Z,101951.23
2023-02-13T08:07:04.950Z,101948.09
2023-02-13T08:09:10.391Z,101949.52
2023-02-13T08:11:17.150Z,101954.14
2023-02-13T08:13:23.962Z,101952.41
2023-02-13T08:15:29.185Z,101960.78
2023-02-13T08:17:35.476Z,101950.6
2023-02-13T08:19:41.737Z,101952.02
2023-02-13T08:21:48.008Z,101954.61
2023-02-13T08:23:53.908Z,101953.82
2023-02-13T08:26:05.026Z,101949.97
2023-02-13T08:28:10.593Z,101947.33
2023-02-13T08:30:16.196Z,101946.09
2023-02-13T08:32:21.903Z,101946.49
2023-02-13T08:34:27.668Z,101943.17
2023-02-13T08:36:33.722Z,101935.98
2023-02-13T08:40:46.044Z,101928.92
2023-02-13T08:42:51.705Z,101932.39
2023-02-13T08:45:01.047Z,101925.59
2023-02-13T08:47:06.866Z,101925.94
2023-02-13T08:49:12.727Z,101926.25
2023-02-13T08:51:18.372Z,101923.13
2023-02-13T08:53:23.981Z,101924.69
2023-02-13T08:55:29.755Z,101907.72
2023-02-13T08:57:35.468Z,101911.36
2023-02-13T08:59:44.441Z,101914.17
2023-02-13T09:01:50.304Z,101914.1
2023-02-13T09:03:56.258Z,101911.16
2023-02-13T09:06:02.125Z,101898.8
2023-02-13T09:08:07.530Z,101892.23
2023-02-13T09:10:13.052Z,101898.19
2023-02-13T09:12:19.151Z,101894.63
2023-02-13T09:14:26.323Z,101888.69
2023-02-13T09:16:32.025Z,101895.11
2023-02-13T09:18:37.600Z,101892.62
2023-02-13T09:20:43.049Z,101896.66
2023-02-13T09:22:48.481Z,101891.81
2023-02-13T09:24:53.715Z,101896.83
2023-02-13T09:26:59.290Z,101905.39
2023-02-13T09:29:05.473Z,101908.03
2023-02-13T09:31:12.517Z,101903.61
2023-02-13T09:33:18.759Z,101903.92
2023-02-13T09:35:24.363Z,101911.91
2023-02-13T09:37:29.540Z,101904.72
2023-02-13T09:39:35.728Z,101900.64
2023-02-13T09:41:42.161Z,101901.6
2023-02-13T09:43:47.979Z,101905.17
2023-02-13T09:45:53.832Z,101906.4
2023-02-13T09:48:00.756Z,101900.48
2023-02-13T09:50:07.719Z,101905.13
2023-02-13T09:52:14.174Z,101901.85
2023-02-13T09:54:20.879Z,101907.97
2023-02-13T09:56:26.395Z,101911.8
2023-02-13T09:58:32.400Z,101913.05
2023-02-13T10:00:38.428Z,101913.55
2023-02-13T10:02:44.177Z,101918.03
2023-02-13T10:04:49.879Z,101916.1
2023-02-13T10:06:55.785Z,101918.38
2023-02-13T10:09:01.936Z,101925.55
2023-02-13T10:11:08.230Z,101911.08
2023-02-13T10:13:14.282Z,101910.58
2023-02-13T10:15:20.304Z,101916.55
2023-02-13T10:17:25.754Z,101919.55
2023-02-13T10:19:31.157Z,101926.73
2023-02-13T10:21:36.593Z,101926.31
2023-02-13T10:23:42.306Z,101929.95
2023-02-13T10:25:47.726Z,101934.31
2023-02-13T10:27:52.941Z,101935.37
2023-02-13T10:29:58.464Z,101939.4
2023-02-13T10:32:04.250Z,101938.4
2023-02-13T10:34:11.014Z,101940.03
2023-02-13T10:36:17.460Z,101931.67
2023-02-13T10:38:24.145Z,101938.17
2023-02-13T10:40:30.860Z,101937.55
2023-02-13T10:42:38.166Z,101925.2
2023-02-13T10:44:44.875Z,101928.66
2023-02-13T10:46:51.987Z,101922.2
2023-02-13T10:48:58.041Z,101926.84
2023-02-13T10:51:04.223Z,101928.35
2023-02-13T10:53:10.892Z,101923.47
2023-02-13T10:55:16.128Z,101925.42
2023-02-13T10:57:21.588Z,101915.03
2023-02-13T10:59:27.395Z,101916.3
2023-02-13T11:01:33.822Z,101922.16
2023-02-13T11:03:39.934Z,101912.7
2023-02-13T11:05:45.187Z,101908.7
2023-02-13T11:07:51.562Z,101900.8
2023-02-13T11:09:57.375Z,101898.8
2023-02-13T11:12:03.375Z,101906.97
2023-02-13T11:14:10.667Z,101897.77
2023-02-13T11:16:17.223Z,101895.75
2023-02-13T11:18:23.657Z,101895.61
2023-02-13T11:20:29.611Z,101893.94
2023-02-13T11:22:35.299Z,101891.67
2023-02-13T11:24:40.666Z,101892.17
2023-02-13T11:26:46.746Z,101898.09
2023-02-13T11:28:53.684Z,101903.56
2023-02-13T11:31:00.387Z,101904.63
2023-02-13T11:33:06.862Z,101903.81
2023-02-13T11:35:13.649Z,101900.86
2023-02-13T11:37:20.414Z,101907.73
2023-02-13T11:39:26.400Z,101904.31
2023-02-13T11:41:31.949Z,101897.48
2023-02-13T11:43:39.233Z,101893.72
2023-02-13T11:45:45.987Z,101888.34
2023-02-13T11:47:52.418Z,101885.92
2023-02-13T11:49:58.895Z,101887.34
2023-02-13T11:52:05.764Z,101890.98
2023-02-13T11:54:12.506Z,101882.97
2023-02-13T11:56:18.900Z,101879.62
2023-02-13T11:58:25.558Z,101875.74
2023-02-13T12:00:31.918Z,101873.78
2023-02-13T12:02:38.053Z,101875.94
2023-02-13T12:04:48.499Z,101858.13
2023-02-13T12:07:07.380Z,101862.51
2023-02-13T12:09:22.263Z,101849.08
2023-02-13T12:11:37.216Z,101849.64
2023-02-13T12:13:46.045Z,101849.5
2023-02-13T12:15:53.429Z,101844.38
2023-02-13T12:18:08.554Z,101838.9
2023-02-13T12:20:19.847Z,101833.88
2023-02-13T12:22:27.246Z,101840.53
2023-02-13T12:24:39.946Z,101834.77
2023-02-13T12:26:57.298Z,101825.73
2023-02-13T12:29:14.264Z,101820.7
2023-02-13T12:31:30.949Z,101817.75
2023-02-13T12:33:38.691Z,101811.1
2023-02-13T12:35:50.902Z,101815.75
2023-02-13T12:37:57.923Z,101816.61
2023-02-13T12:40:07.276Z,101811.35
2023-02-13T12:42:15.952Z,101812.15
2023-02-13T12:44:35.944Z,101800.02
2023-02-13T12:46:45.661Z,101794.41
2023-02-13T12:49:12.950Z,101803.86
2023-02-13T12:51:19.634Z,101810.99
2023-02-13T12:53:30.505Z,101811.09
2023-02-13T12:55:39.093Z,101807.77
2023-02-13T12:57:45.868Z,101799.2
2023-02-13T12:59:58.260Z,101792.95
2023-02-13T13:02:05.210Z,101794.05
2023-02-13T13:04:18.575Z,101793.9
2023-02-13T13:06:26.528Z,101790.73
2023-02-13T13:08:35.141Z,101790.09
2023-02-13T13:10:43.856Z,101782.05
2023-02-13T13:12:50.251Z,101781.7
2023-02-13T13:15:03.278Z,101774.22
2023-02-13T13:20:45.148Z,101772.64
2023-02-13T13:22:52.326Z,101766.77
2023-02-13T13:28:36.353Z,101757.99
2023-02-13T13:34:13.455Z,101758.06
2023-02-13T13:39:55.777Z,101743.8
2023-02-13T13:45:32.607Z,101740.36
2023-02-13T13:51:13.931Z,101756.33
2023-02-13T13:56:48.283Z,101755.69
2023-02-13T14:02:25.416Z,101754.01
2023-02-13T14:08:08.710Z,101770.49
2023-02-13T14:13:45.747Z,101758.6
2023-02-13T14:19:04.066Z,101758.88
2023-02-13T14:21:16.762Z,101758.52
2023-02-13T14:23:27.907Z,101759.91
2023-02-13T14:25:36.772Z,101767.38
2023-02-13T14:27:51.738Z,101763.11
2023-02-13T14:30:00.729Z,101756.72
2023-02-13T14:32:21.131Z,101750.48
2023-02-13T14:34:30.670Z,101750.94
2023-02-13T14:36:42.277Z,101746.95
2023-02-13T14:38:53.902Z,101738.08
2023-02-13T14:41:03.082Z,101725.59
2023-02-13T14:43:17.513Z,101727.88
2023-02-13T14:45:23.983Z,101732.23
2023-02-13T14:47:30.828Z,101718.87
2023-02-13T14:49:37.304Z,101715.23
2023-02-13T14:51:43.062Z,101731.5
2023-02-13T14:53:52.316Z,101727.83
2023-02-13T14:56:00.653Z,101728.72
2023-02-13T14:58:17.179Z,101742.12
2023-02-13T15:00:32.239Z,101729.52
2023-02-13T15:02:41.925Z,101732.66
2023-02-13T15:04:54.660Z,101738.42
2023-02-13T15:07:03.336Z,101736.11
2023-02-13T15:09:32.053Z,101732.8
2023-02-13T15:11:40.773Z,101739.48
2023-02-13T15:13:56.343Z,101741.34
2023-02-13T15:16:02.271Z,101736.53
2023-02-13T15:18:11.858Z,101730.51
2023-02-13T15:20:21.177Z,101742.43
2023-02-13T15:22:27.826Z,101749.72
2023-02-13T15:24:38.167Z,101743.43
2023-02-13T15:26:46.174Z,101738.48
2023-02-13T15:28:58.409Z,101741.25
2023-02-13T15:31:09.082Z,101737.71
2023-02-13T15:33:16.264Z,101730.35
2023-02-13T15:35:26.436Z,101729.42
2023-02-13T15:37:42.392Z,101709.39
2023-02-13T15:39:51.336Z,101700.78
2023-02-13T15:41:59.642Z,101704.39
2023-02-13T15:44:06.573Z,101708.75
2023-02-13T15:46:19.382Z,101706.55
2023-02-13T15:48:31.493Z,101697.57
2023-02-13T15:50:57.033Z,101687.89
2023-02-13T15:53:06.131Z,101687.13
2023-02-13T15:55:18.019Z,101690.44
2023-02-13T15:57:30.714Z,101689.36
2023-02-13T16:02:20.418Z,101701.18
2023-02-13T16:04:31.225Z,101717.36
2023-02-13T16:06:39.220Z,101713.09
2023-02-13T16:12:29.764Z,101729.01
2023-02-13T16:15:52.015Z,101734.55
2023-02-13T16:17:58.909Z,101725.78
2023-02-13T16:20:12.661Z,101730.45
2023-02-13T16:22:32.198Z,101726.7
2023-02-13T16:24:40.951Z,101720.06
2023-02-13T16:26:57.407Z,101725.2
2023-02-13T16:29:14.673Z,101727.53
2023-02-13T16:31:25.474Z,101724.53
2023-02-13T16:33:34.597Z,101734.98
2023-02-13T16:35:47.108Z,101734.71
2023-02-13T16:37:59.278Z,101736.8
2023-02-13T16:40:07.315Z,101734.72
2023-02-13T16:42:15.693Z,101733.31
2023-02-13T16:44:27.010Z,101742.92
2023-02-13T16:46:33.461Z,101744.81
2023-02-13T16:48:45.815Z,101745.66
2023-02-13T16:50:57.084Z,101743.58
2023-02-13T16:53:11.787Z,101729.88
2023-02-13T16:55:17.469Z,101736.37
2023-02-13T16:57:24.718Z,101738.75
2023-02-13T16:59:35.605Z,101736.78
2023-02-13T17:01:46.065Z,101737.12
2023-02-13T17:03:57.646Z,101741.52
2023-02-13T17:06:09.070Z,101743.64
2023-02-13T17:08:20.116Z,101744.34
2023-02-13T17:10:29.397Z,101742.63
2023-02-13T17:12:39.230Z,101742.75
2023-02-13T17:14:47.493Z,101744.33
2023-02-13T17:17:00.665Z,101746.95
2023-02-13T17:19:19.956Z,101737.69
2023-02-13T17:21:28.802Z,101738.66
2023-02-13T17:23:39.111Z,101741.02
2023-02-13T17:25:48.798Z,101745.64
2023-02-13T17:27:58.010Z,101738.97
2023-02-13T17:30:15.836Z,101739.54
2023-02-13T17:32:27.400Z,101737.36
2023-02-13T17:34:51.956Z,101741.28
2023-02-13T17:37:04.790Z,101737.31
2023-02-13T17:39:34.945Z,101747.03
2023-02-13T17:41:59.978Z,101741.95
2023-02-13T17:50:19.462Z,101743.88
2023-02-13T17:52:48.028Z,101746.02
2023-02-13T17:58:07.744Z,101739.62
2023-02-13T18:08:20.034Z,101744.77
2023-02-13T18:10:31.350Z,101739.2
2023-02-13T18:12:38.633Z,101744.03
2023-02-13T18:14:52.334Z,101750.18
2023-02-13T18:17:01.359Z,101757.64
2023-02-13T18:19:15.065Z,101755.61
2023-02-13T18:21:29.681Z,101766.78
2023-02-13T18:23:41.422Z,101774.46
2023-02-13T18:25:54.360Z,101782.67
2023-02-13T18:28:06.926Z,101781.27
2023-02-13T18:30:16.054Z,101785.95
2023-02-13T18:32:24.837Z,101783.41
2023-02-13T18:34:44.401Z,101785.94
2023-02-13T18:36:54.164Z,101789.55
2023-02-13T18:39:08.669Z,101801.3
2023-02-13T18:41:24.200Z,101797.2
2023-02-13T18:43:36.975Z,101791.21
2023-02-13T18:45:49.931Z,101789.47
2023-02-13T18:48:02.194Z,101800.77
2023-02-13T18:50:15.325Z,101803.05
2023-02-13T18:52:24.903Z,101798.16
2023-02-13T18:54:32.382Z,101787.16
2023-02-13T18:56:42.456Z,101779.11
2023-02-13T18:59:04.406Z,101774.75
2023-02-13T19:01:15.420Z,101775.88
2023-02-13T19:03:24.979Z,101780.38
2023-02-13T19:05:40.236Z,101784.46
2023-02-13T19:07:49.354Z,101784.95
2023-02-13T19:09:58.262Z,101786.3
2023-02-13T19:12:16.849Z,101786.77
2023-02-13T19:14:28.768Z,101788.91
2023-02-13T19:16:42.802Z,101786.59
2023-02-13T19:18:55.964Z,101786.02
2023-02-13T19:21:10.215Z,101788.38
2023-02-13T19:23:23.561Z,101784.79
2023-02-13T19:25:33.849Z,101786.01
2023-02-13T19:27:43.384Z,101787.38
2023-02-13T19:29:53.807Z,101783.22
2023-02-13T19:32:04.386Z,101783.73
2023-02-13T19:34:31.330Z,101786.72
2023-02-13T19:36:46.797Z,101785.45
2023-02-13T19:38:56.979Z,101793.06
2023-02-13T19:41:10.620Z,101799.02
2023-02-13T19:43:22.970Z,101801.77
2023-02-13T19:45:36.427Z,101792.98
2023-02-13T19:47:48.394Z,101796.97
2023-02-13T19:50:03.204Z,101797.22
2023-02-13T19:52:16.485Z,101794.52
2023-02-13T19:54:30.412Z,101806.89
2023-02-13T19:56:42.271Z,101807.06
2023-02-13T19:58:53.936Z,101801.97
2023-02-13T20:01:03.406Z,101809.78
2023-02-13T20:03:22.108Z,101807.89
2023-02-13T20:05:31.913Z,101813.54
2023-02-13T20:07:42.016Z,101810.75
2023-02-13T20:09:53.605Z,101818.3
2023-02-13T20:12:06.850Z,101811.57
2023-02-13T20:14:16.952Z,101812.97
2023-02-13T20:16:27.270Z,101814.41
2023-02-13T20:18:41.400Z,101812.72
2023-02-13T20:20:53.804Z,101818.33
2023-02-13T20:23:09.538Z,101818.36
2023-02-13T20:25:20.886Z,101823.42
2023-02-13T20:27:34.786Z,101818.37
2023-02-13T20:30:03.390Z,101822.52
2023-02-13T20:32:22.461Z,101819.16
2023-02-13T20:34:44.057Z,101820.16
2023-02-13T20:37:07.649Z,101823.28
2023-02-13T20:39:16.959Z,101822.83
2023-02-13T20:41:33.653Z,101813.33
2023-02-13T20:43:50.119Z,101800.34
2023-02-13T20:46:02.221Z,101799.48
2023-02-13T20:48:12.636Z,101796.29
2023-02-13T20:50:28.238Z,101795.47
2023-02-13T20:52:40.059Z,101799.95
2023-02-13T20:54:50.179Z,101798.81
2023-02-13T20:57:02.823Z,101801.16
2023-02-13T20:59:15.083Z,101799.55
2023-02-13T21:01:26.136Z,101791.83
2023-02-13T21:03:35.590Z,101792.72
2023-02-13T21:05:47.556Z,101785.8
2023-02-13T21:07:56.491Z,101789.42
2023-02-13T21:10:06.344Z,101787.38
2023-02-13T21:12:19.117Z,101773.59
2023-02-13T21:14:43.361Z,101772.27
2023-02-13T21:16:52.167Z,101776.34
2023-02-13T21:19:01.981Z,101782.97
2023-02-13T21:21:11.439Z,101784.7
2023-02-13T21:23:19.974Z,101777.98
2023-02-13T21:25:29.661Z,101783.46
2023-02-13T21:27:39.254Z,101779.59
2023-02-13T21:29:46.822Z,101781.32
2023-02-13T21:31:57.165Z,101783.61
2023-02-13T21:34:05.975Z,101782.7
2023-02-13T21:36:14.219Z,101786.71
2023-02-13T21:38:20.198Z,101776.66
2023-02-13T21:40:29.441Z,101777.39
2023-02-13T21:42:41.372Z,101775.64
2023-02-13T21:44:49.398Z,101782.45
2023-02-13T21:46:56.618Z,101783.2
2023-02-13T21:49:03.307Z,101790.55
2023-02-13T21:51:09.880Z,101787.34
2023-02-13T21:53:17.633Z,101789.28
2023-02-13T21:55:28.617Z,101782.67
2023-02-13T21:57:35.538Z,101776.94
2023-02-13T21:59:40.902Z,101782.12
2023-02-13T22:01:47.899Z,101787.5
2023-02-13T22:03:53.796Z,101790.86
2023-02-13T22:06:03.228Z,101793.76
2023-02-13T22:08:10.260Z,101782.71
2023-02-13T22:10:15.918Z,101779.99
2023-02-13T22:12:21.849Z,101776.08
2023-02-13T22:14:27.260Z,101772.43
2023-02-13T22:16:33.154Z,101773.81
2023-02-13T22:18:39.043Z,101772.86
2023-02-13T22:20:44.620Z,101777.76
2023-02-13T22:22:49.949Z,101777.58
2023-02-13T22:24:55.846Z,101777.01
2023-02-13T22:27:01.449Z,101777.83
2023-02-13T22:29:06.872Z,101776.41
2023-02-13T22:31:12.701Z,101782.06
2023-02-13T22:33:18.906Z,101785.91
2023-02-13T22:35:24.788Z,101785.92
2023-02-13T22:37:30.166Z,101781.42
2023-02-13T22:39:35.634Z,101777.4
2023-02-13T22:41:42.287Z,101778.47
2023-02-13T22:43:47.727Z,101777.69
2023-02-13T22:45:53.842Z,101782.05
2023-02-13T22:48:02.696Z,101785.09
2023-02-13T22:50:07.864Z,101783.45
2023-02-13T22:52:13.515Z,101779.55
2023-02-13T22:54:22.070Z,101779.36
2023-02-13T22:56:27.679Z,101779.14
2023-02-13T22:58:33.300Z,101776.17
2023-02-13T23:00:38.699Z,101776.1
2023-02-13T23:02:44.375Z,101772.25
2023-02-13T23:04:50.267Z,101772.09
2023-02-13T23:06:55.866Z,101781.09
2023-02-13T23:09:01.515Z,101777.74
2023-02-13T23:11:06.846Z,101782.3
2023-02-13T23:13:12.267Z,101786.33
2023-02-13T23:15:17.664Z,101785.67
2023-02-13T23:17:23.059Z,101786.31
2023-02-13T23:19:28.665Z,101782.65
2023-02-13T23:21:34.650Z,101787.72
2023-02-13T23:23:40.125Z,101784.51
2023-02-13T23:25:47.413Z,101785.69
2023-02-13T23:27:52.805Z,101778.99
2023-02-13T23:29:58.093Z,101780.78
2023-02-13T23:32:03.757Z,101778.39
2023-02-13T23:34:09.619Z,101775.77
2023-02-13T23:36:14.752Z,101776.64
2023-02-13T23:38:20.018Z,101778.46
2023-02-13T23:40:25.301Z,101781.08
2023-02-13T23:42:30.811Z,101779.78
2023-02-13T23:44:36.298Z,101787.31
2023-02-13T23:46:44.982Z,101787.45
2023-02-13T23:48:50.863Z,101790.48
2023-02-13T23:50:56.485Z,101785.34
2023-02-13T23:53:02.962Z,101782.38
2023-02-13T23:55:08.225Z,101783.38
2023-02-13T23:57:13.426Z,101777.06
2023-02-13T23:59:18.822Z,101778.26
